Time;durP1;ratioP1;P1;durP2;ratioP2;P2;SDS_P1;SDS_P2;PMS_P1;PMS_P2;Temp;Humidity;BMP_temperature;BMP_pressure;BME280_temperature;BME280_humidity;BME280_pressure;Samples;Min_cycle;Max_cycle;Signal;HPM_P1;HPM_P2
2022/05/06 00:02:03;;;;;;;7.67;5.33;;;10.20;99.90;;;;;;5133458;27;20212;-60
2022/05/06 00:04:31;;;;;;;9.40;5.30;;;10.10;99.90;;;;;;5133055;27;20246;-62
2022/05/06 00:06:58;;;;;;;8.73;5.30;;;10.10;99.90;;;;;;5132892;27;20716;-62
2022/05/06 00:09:25;;;;;;;8.30;4.87;;;10.00;99.90;;;;;;5132969;27;20221;-62
2022/05/06 00:11:52;;;;;;;7.50;4.83;;;10.00;99.90;;;;;;5132668;27;20257;-62
2022/05/06 00:14:19;;;;;;;8.50;5.67;;;10.00;99.90;;;;;;5133187;27;20212;-62
2022/05/06 00:16:46;;;;;;;7.30;4.73;;;10.00;99.90;;;;;;5132749;27;20277;-61
2022/05/06 00:19:13;;;;;;;9.87;5.07;;;9.90;99.90;;;;;;5133179;27;20234;-62
2022/05/06 00:21:41;;;;;;;12.63;5.37;;;9.80;99.90;;;;;;5132604;27;20241;-61
2022/05/06 00:24:08;;;;;;;9.40;5.40;;;9.80;99.90;;;;;;5132944;27;20213;-60
2022/05/06 00:26:35;;;;;;;7.83;5.30;;;9.80;99.90;;;;;;5132380;27;20204;-62
2022/05/06 00:29:01;;;;;;;10.80;4.70;;;9.80;99.90;;;;;;5133137;27;20281;-62
2022/05/06 00:31:28;;;;;;;10.57;5.07;;;9.80;99.90;;;;;;5132941;27;20219;-61
2022/05/06 00:33:54;;;;;;;7.70;5.00;;;9.70;99.90;;;;;;5132698;27;20211;-62
2022/05/06 00:36:21;;;;;;;8.47;5.47;;;9.70;99.90;;;;;;5132585;27;20261;-62
2022/05/06 00:38:49;;;;;;;10.53;4.97;;;9.60;99.90;;;;;;5132608;27;20200;-62
2022/05/06 00:41:16;;;;;;;8.07;4.67;;;9.70;99.90;;;;;;5132865;27;20228;-62
2022/05/06 00:43:43;;;;;;;9.67;5.07;;;9.60;99.90;;;;;;5132816;27;20234;-62
2022/05/06 00:46:12;;;;;;;10.67;5.20;;;9.60;99.90;;;;;;5132553;27;20208;-62
2022/05/06 00:48:41;;;;;;;8.43;5.17;;;9.60;99.90;;;;;;5132658;27;20207;-62
2022/05/06 00:51:09;;;;;;;7.57;4.60;;;9.60;99.90;;;;;;5132825;27;20287;-62
2022/05/06 00:53:36;;;;;;;8.37;4.90;;;9.60;99.90;;;;;;5134449;27;20671;-62
2022/05/06 00:56:05;;;;;;;8.37;5.50;;;9.60;99.90;;;;;;5135259;27;20211;-62
2022/05/06 00:58:33;;;;;;;7.77;5.57;;;9.60;99.90;;;;;;5136909;27;20202;-62
2022/05/06 01:01:02;;;;;;;13.03;5.07;;;9.50;99.90;;;;;;5136547;27;20284;-62
2022/05/06 01:03:28;;;;;;;7.80;4.53;;;9.50;99.90;;;;;;5136775;27;20203;-62
2022/05/06 01:05:55;;;;;;;8.33;5.43;;;9.50;99.90;;;;;;5136160;27;20203;-62
2022/05/06 01:08:22;;;;;;;7.30;5.00;;;9.50;99.90;;;;;;5136784;27;20232;-62
2022/05/06 01:10:49;;;;;;;10.40;5.70;;;9.50;99.90;;;;;;5136306;27;20223;-61
2022/05/06 01:13:18;;;;;;;9.27;5.10;;;9.50;99.90;;;;;;5136469;27;20737;-62
2022/05/06 01:15:45;;;;;;;8.97;5.23;;;9.40;99.90;;;;;;5136650;27;20207;-62
2022/05/06 01:18:12;;;;;;;8.07;5.33;;;9.50;99.90;;;;;;5135984;27;20223;-62
2022/05/06 01:20:45;;;;;;;8.57;5.27;;;9.40;99.90;;;;;;5136080;27;20308;-62
2022/05/06 01:23:13;;;;;;;8.60;5.63;;;9.40;99.90;;;;;;5136387;27;20204;-62
2022/05/06 01:25:40;;;;;;;10.83;5.40;;;9.40;99.90;;;;;;5136363;27;20678;-62
2022/05/06 01:28:07;;;;;;;13.13;5.40;;;9.30;99.90;;;;;;5136519;27;20272;-62
2022/05/06 01:30:37;;;;;;;8.70;5.30;;;9.30;99.90;;;;;;5136213;27;20235;-62
2022/05/06 01:33:05;;;;;;;9.90;5.67;;;9.30;99.90;;;;;;5135862;27;20208;-60
2022/05/06 01:35:33;;;;;;;10.00;5.20;;;9.30;99.90;;;;;;5135934;27;20670;-61
2022/05/06 01:38:03;;;;;;;10.70;6.20;;;9.20;99.90;;;;;;5135661;27;20208;-62
2022/05/06 01:40:37;;;;;;;10.90;5.40;;;9.20;99.90;;;;;;5135795;27;20216;-61
2022/05/06 01:43:07;;;;;;;10.60;5.43;;;9.20;99.90;;;;;;5136071;27;20203;-62
2022/05/06 01:45:36;;;;;;;10.00;5.87;;;9.20;99.90;;;;;;5135717;27;20652;-62
2022/05/06 01:48:04;;;;;;;9.43;5.90;;;9.20;99.90;;;;;;5135405;27;20650;-62
2022/05/06 01:50:33;;;;;;;8.17;4.90;;;9.10;99.90;;;;;;5135678;27;20223;-62
2022/05/06 01:53:01;;;;;;;8.77;5.63;;;9.00;1.00;;;;;;5135932;27;20253;-62
2022/05/06 01:55:27;;;;;;;10.07;5.87;;;8.90;1.00;;;;;;5135467;27;20203;-62
2022/05/06 01:57:55;;;;;;;14.43;6.60;;;8.80;48.30;;;;;;5135295;27;20211;-61
2022/05/06 02:00:22;;;;;;;10.93;5.93;;;8.80;99.90;;;;;;5135130;27;20223;-61
2022/05/06 02:02:48;;;;;;;7.47;5.80;;;8.90;99.90;;;;;;5135865;27;20260;-62
2022/05/06 02:05:17;;;;;;;11.37;6.53;;;8.90;99.90;;;;;;5134506;27;20211;-62
2022/05/06 02:07:44;;;;;;;9.87;5.80;;;8.90;99.90;;;;;;5135068;27;20199;-62
2022/05/06 02:10:11;;;;;;;9.83;6.13;;;8.80;99.90;;;;;;5135371;27;20253;-60
2022/05/06 02:12:38;;;;;;;7.73;5.27;;;8.80;99.90;;;;;;5134918;27;20214;-62
2022/05/06 02:15:08;;;;;;;12.30;6.77;;;8.80;99.90;;;;;;5135498;27;20203;-62
2022/05/06 02:17:34;;;;;;;9.33;5.90;;;8.80;99.90;;;;;;5134987;27;20207;-61
2022/05/06 02:20:01;;;;;;;8.70;5.17;;;8.80;99.90;;;;;;5135264;27;20223;-62
2022/05/06 02:22:29;;;;;;;11.63;6.20;;;8.80;99.90;;;;;;5134996;27;20199;-62
2022/05/06 02:24:56;;;;;;;9.83;5.93;;;8.80;1.00;;;;;;5135099;27;20207;-62
2022/05/06 02:27:23;;;;;;;9.10;6.33;;;8.80;1.00;;;;;;5134718;27;20236;-61
2022/05/06 02:35:16;;;;;;;11.00;6.60;;;8.70;1.00;;;;;;5134702;27;20291;-66
2022/05/06 02:37:43;;;;;;;10.97;6.77;;;8.70;1.00;;;;;;5134527;27;20342;-63
2022/05/06 02:40:11;;;;;;;12.53;6.33;;;8.70;1.00;;;;;;5134654;27;20278;-62
2022/05/06 02:42:37;;;;;;;11.40;6.50;;;8.70;1.00;;;;;;5134826;27;20604;-62
2022/05/06 02:45:05;;;;;;;11.03;6.13;;;8.70;1.00;;;;;;5134775;27;20203;-63
2022/05/06 02:47:33;;;;;;;12.27;7.10;;;8.60;1.00;;;;;;5134216;27;20232;-63
2022/05/06 02:49:59;;;;;;;9.10;6.33;;;8.60;56.90;;;;;;5134452;27;20276;-63
2022/05/06 02:52:26;;;;;;;13.10;6.57;;;8.60;99.90;;;;;;5134428;27;20682;-63
2022/05/06 02:54:53;;;;;;;9.27;5.93;;;8.60;99.90;;;;;;5134795;27;20203;-63
2022/05/06 02:57:19;;;;;;;9.60;6.70;;;8.60;99.90;;;;;;5134065;27;20198;-62
2022/05/06 02:59:46;;;;;;;11.83;7.17;;;8.50;99.90;;;;;;5134380;27;20222;-63
2022/05/06 03:02:13;;;;;;;11.33;5.90;;;8.50;1.00;;;;;;5134379;27;20202;-63
2022/05/06 03:04:41;;;;;;;8.50;6.43;;;8.50;1.00;;;;;;5134158;27;20252;-62
2022/05/06 03:07:08;;;;;;;11.80;6.10;;;8.50;99.90;;;;;;5133755;27;20293;-63
2022/05/06 03:09:35;;;;;;;11.63;6.37;;;8.40;99.90;;;;;;5134310;27;20219;-63
2022/05/06 03:12:02;;;;;;;8.87;6.27;;;8.40;99.90;;;;;;5133915;27;20259;-63
2022/05/06 03:14:28;;;;;;;13.23;6.73;;;8.40;99.90;;;;;;5134243;27;20336;-63
2022/05/06 03:16:55;;;;;;;13.70;6.53;;;8.40;99.90;;;;;;5133619;27;20207;-63
2022/05/06 03:19:22;;;;;;;12.33;6.57;;;8.40;99.90;;;;;;5133645;27;20207;-62
2022/05/06 03:21:54;;;;;;;11.03;6.60;;;8.40;99.90;;;;;;5134033;27;20198;-62
2022/05/06 03:24:21;;;;;;;11.43;6.93;;;8.40;1.00;;;;;;5133767;27;20665;-62
2022/05/06 03:26:48;;;;;;;9.27;6.10;;;8.40;1.00;;;;;;5133563;27;20228;-62
2022/05/06 03:29:14;;;;;;;10.17;6.73;;;8.30;1.00;;;;;;5134410;27;20276;-62
2022/05/06 03:31:41;;;;;;;10.03;6.10;;;8.30;1.00;;;;;;5134498;27;20226;-62
2022/05/06 03:34:08;;;;;;;11.13;7.33;;;8.30;1.00;;;;;;5134175;27;20210;-63
2022/05/06 03:36:35;;;;;;;10.13;6.40;;;8.30;1.00;;;;;;5134107;27;20202;-62
2022/05/06 03:39:03;;;;;;;11.37;7.40;;;8.20;1.00;;;;;;5134044;27;20618;-62
2022/05/06 03:41:30;;;;;;;10.27;6.80;;;8.20;1.00;;;;;;5135059;27;20223;-62
2022/05/06 03:43:56;;;;;;;11.87;7.37;;;8.20;1.00;;;;;;5133923;27;20247;-62
2022/05/06 03:46:23;;;;;;;12.37;7.37;;;8.10;1.00;;;;;;5132910;27;20240;-62
2022/05/06 03:48:51;;;;;;;13.97;7.70;;;8.00;1.00;;;;;;5133671;27;20211;-63
2022/05/06 03:51:23;;;;;;;15.00;7.87;;;8.00;92.00;;;;;;5133259;27;20227;-63
2022/05/06 03:53:50;;;;;;;11.90;7.33;;;8.00;99.90;;;;;;5133534;27;20207;-63
2022/05/06 03:56:18;;;;;;;12.23;7.43;;;8.10;99.90;;;;;;5132985;27;20217;-63
2022/05/06 03:58:45;;;;;;;13.10;6.73;;;8.00;99.90;;;;;;5133496;27;20199;-61
2022/05/06 04:01:12;;;;;;;12.63;8.17;;;8.00;99.90;;;;;;5133398;27;20225;-62
2022/05/06 04:03:39;;;;;;;18.53;9.87;;;8.00;1.00;;;;;;5133454;27;20206;-61
2022/05/06 04:06:06;;;;;;;15.90;8.67;;;8.00;1.00;;;;;;5133417;27;20211;-63
2022/05/06 04:08:33;;;;;;;11.87;8.67;;;8.00;1.00;;;;;;5133280;27;20199;-63
2022/05/06 04:11:00;;;;;;;13.93;7.83;;;8.00;1.00;;;;;;5132839;27;20666;-63
2022/05/06 04:13:28;;;;;;;14.87;8.07;;;8.00;1.00;;;;;;5132877;27;20214;-63
2022/05/06 04:15:55;;;;;;;14.47;8.67;;;8.10;1.00;;;;;;5132515;27;20213;-63
2022/05/06 04:18:21;;;;;;;12.47;7.53;;;8.10;99.90;;;;;;5133170;27;20206;-62
2022/05/06 04:23:35;;;;;;;14.53;7.50;;;8.10;99.90;;;;;;5132997;27;20716;-63
2022/05/06 04:26:03;;;;;;;13.10;7.60;;;8.10;99.90;;;;;;5132118;27;20207;-61
2022/05/06 04:28:32;;;;;;;11.80;8.33;;;8.10;99.90;;;;;;5132235;27;20617;-62
2022/05/06 04:31:00;;;;;;;14.73;7.43;;;8.20;89.00;;;;;;5132797;27;20226;-63
2022/05/06 04:33:27;;;;;;;12.57;7.73;;;8.20;66.90;;;;;;5133013;27;20622;-63
2022/05/06 04:35:55;;;;;;;16.37;7.37;;;8.20;99.90;;;;;;5132377;27;20635;-62
2022/05/06 04:38:22;;;;;;;11.53;7.13;;;8.20;99.90;;;;;;5132872;27;20206;-62
2022/05/06 04:40:49;;;;;;;11.53;7.70;;;8.20;99.90;;;;;;5132490;27;20219;-62
2022/05/06 04:43:20;;;;;;;11.60;6.77;;;8.20;99.90;;;;;;5132790;27;20251;-62
2022/05/06 04:45:49;;;;;;;13.10;7.33;;;8.30;99.90;;;;;;5132897;27;20207;-62
2022/05/06 04:48:16;;;;;;;12.37;7.33;;;8.30;99.90;;;;;;5130379;27;20233;-64
2022/05/06 04:50:44;;;;;;;11.63;7.13;;;8.30;99.90;;;;;;5132058;27;20223;-64
2022/05/06 04:53:11;;;;;;;14.53;7.57;;;8.40;99.90;;;;;;5132026;27;20259;-65
2022/05/06 04:55:39;;;;;;;14.20;8.53;;;8.40;99.90;;;;;;5132644;27;20229;-64
2022/05/06 04:58:07;;;;;;;14.03;8.10;;;8.50;99.90;;;;;;5132296;27;20207;-63
2022/05/06 05:00:34;;;;;;;11.93;8.53;;;8.50;99.90;;;;;;5132558;27;20227;-64
2022/05/06 05:03:03;;;;;;;15.13;8.63;;;8.60;99.90;;;;;;5132478;27;20263;-65
2022/05/06 05:05:30;;;;;;;14.80;8.07;;;8.60;99.90;;;;;;5132074;27;20198;-65
2022/05/06 05:07:57;;;;;;;13.77;8.80;;;8.70;99.90;;;;;;5132416;27;20817;-63
2022/05/06 05:10:24;;;;;;;15.57;8.20;;;8.80;99.90;;;;;;5131977;27;20222;-65
2022/05/06 05:12:51;;;;;;;14.17;8.40;;;8.80;99.90;;;;;;5132511;27;20211;-64
2022/05/06 05:15:18;;;;;;;14.77;8.60;;;8.90;99.90;;;;;;5132519;27;20207;-64
2022/05/06 05:17:45;;;;;;;18.27;7.50;;;9.00;99.90;;;;;;5131901;27;20669;-63
2022/05/06 05:20:14;;;;;;;12.37;7.90;;;9.10;99.90;;;;;;5132144;27;20271;-63
2022/05/06 05:22:41;;;;;;;11.97;7.53;;;9.10;99.90;;;;;;5132352;27;20260;-64
2022/05/06 05:25:09;;;;;;;12.03;7.50;;;9.20;99.90;;;;;;5132545;27;20241;-64
2022/05/06 05:27:37;;;;;;;13.53;7.40;;;9.30;99.90;;;;;;5131637;27;20241;-64
2022/05/06 05:30:07;;;;;;;13.93;7.87;;;9.30;99.90;;;;;;5132113;27;20759;-64
2022/05/06 05:32:34;;;;;;;10.63;7.20;;;9.40;82.50;;;;;;5131875;27;20203;-63
2022/05/06 05:35:01;;;;;;;14.10;7.70;;;9.50;52.10;;;;;;5132071;27;20227;-64
2022/05/06 05:37:30;;;;;;;14.93;7.83;;;9.60;39.30;;;;;;5124186;27;20203;-61
2022/05/06 05:39:57;;;;;;;15.90;8.57;;;9.70;1.00;;;;;;5126057;27;20620;-63
2022/05/06 05:42:27;;;;;;;12.47;7.97;;;9.80;1.00;;;;;;5135214;27;20204;-61
2022/05/06 05:50:23;;;;;;;11.97;7.97;;;10.20;99.90;;;;;;5134541;27;20232;-63
2022/05/06 05:52:51;;;;;;;12.73;7.50;;;10.40;53.60;;;;;;5135220;27;20203;-63
2022/05/06 05:55:19;;;;;;;12.73;7.47;;;10.50;1.00;;;;;;5134838;27;20666;-61
2022/05/06 05:57:46;;;;;;;13.23;7.80;;;10.60;1.00;;;;;;5134337;27;20217;-62
2022/05/06 06:00:13;;;;;;;14.80;7.67;;;10.80;1.00;;;;;;5134803;27;20220;-62
2022/05/06 06:02:40;;;;;;;14.20;7.43;;;10.90;1.00;;;;;;5134946;27;20212;-63
2022/05/06 06:05:08;;;;;;;13.43;7.73;;;11.10;1.00;;;;;;5135095;27;20205;-63
2022/05/06 06:07:35;;;;;;;14.43;8.60;;;11.30;99.90;;;;;;5134256;27;20738;-62
2022/05/06 06:10:03;;;;;;;15.17;8.10;;;11.40;99.90;;;;;;5134539;27;20858;-62
2022/05/06 06:12:30;;;;;;;13.53;8.23;;;11.60;99.90;;;;;;5134368;27;20283;-63
2022/05/06 06:14:57;;;;;;;17.40;8.60;;;11.80;99.90;;;;;;5134533;27;20211;-64
2022/05/06 06:17:23;;;;;;;11.63;6.93;;;12.00;99.90;;;;;;5134639;27;20256;-63
2022/05/06 06:19:50;;;;;;;15.03;7.40;;;12.20;99.90;;;;;;5134078;27;20218;-62
2022/05/06 06:22:17;;;;;;;11.83;7.07;;;12.40;99.90;;;;;;5134737;27;20674;-62
2022/05/06 06:24:44;;;;;;;13.87;7.83;;;12.70;99.90;;;;;;5134418;27;20203;-63
2022/05/06 06:27:12;;;;;;;11.77;7.90;;;12.90;99.90;;;;;;5134212;27;20212;-63
2022/05/06 06:29:38;;;;;;;14.17;7.77;;;13.10;99.90;;;;;;5134647;27;20285;-62
2022/05/06 06:32:06;;;;;;;11.07;7.30;;;13.30;99.90;;;;;;5134413;27;20249;-62
2022/05/06 06:34:32;;;;;;;14.00;8.00;;;13.50;99.90;;;;;;5134646;27;20204;-60
2022/05/06 06:36:59;;;;;;;12.67;7.63;;;13.70;99.90;;;;;;5133647;27;20208;-60
2022/05/06 06:39:26;;;;;;;13.20;7.70;;;13.90;99.90;;;;;;5134069;27;20263;-65
2022/05/06 06:41:52;;;;;;;13.37;7.73;;;14.00;99.90;;;;;;5134744;27;20824;-61
2022/05/06 06:44:20;;;;;;;19.83;8.30;;;14.20;99.90;;;;;;5134127;27;20251;-60
2022/05/06 06:46:47;;;;;;;12.33;8.20;;;14.20;99.90;;;;;;5133703;27;20214;-60
2022/05/06 06:49:13;;;;;;;13.97;7.73;;;14.40;99.90;;;;;;5133861;27;20203;-63
2022/05/06 06:51:40;;;;;;;12.10;8.17;;;14.60;99.90;;;;;;5133632;27;20222;-61
2022/05/06 06:54:07;;;;;;;15.40;7.77;;;14.60;99.90;;;;;;5134955;27;20696;-61
2022/05/06 06:56:33;;;;;;;10.83;7.27;;;14.80;99.90;;;;;;5133551;27;20259;-61
2022/05/06 06:59:00;;;;;;;12.40;7.97;;;15.00;99.90;;;;;;5134546;27;20203;-63
2022/05/06 07:01:28;;;;;;;9.80;7.43;;;15.10;97.70;;;;;;5133384;27;20252;-63
2022/05/06 07:03:54;;;;;;;12.47;7.30;;;15.30;97.50;;;;;;5134124;27;20267;-61
2022/05/06 07:11:56;;;;;;;11.43;7.10;;;15.60;96.70;;;;;;5133292;27;20269;-62
2022/05/06 07:14:25;;;;;;;11.03;7.37;;;15.80;98.10;;;;;;5133513;27;20245;-62
2022/05/06 07:16:54;;;;;;;15.23;7.47;;;15.90;96.20;;;;;;5132902;27;20210;-62
2022/05/06 07:19:22;;;;;;;11.87;6.87;;;16.00;99.80;;;;;;5133081;27;20207;-61
2022/05/06 07:21:51;;;;;;;10.50;7.00;;;16.10;99.30;;;;;;5133451;27;20203;-61
2022/05/06 07:24:18;;;;;;;11.13;6.90;;;16.30;98.60;;;;;;5132880;27;20238;-61
2022/05/06 07:26:45;;;;;;;11.80;7.13;;;16.50;94.50;;;;;;5132950;27;20565;-61
2022/05/06 07:29:12;;;;;;;12.23;6.90;;;16.70;92.00;;;;;;5132774;27;20217;-61
2022/05/06 07:31:39;;;;;;;10.87;7.07;;;16.90;94.30;;;;;;5132303;27;20237;-61
2022/05/06 07:34:07;;;;;;;12.87;7.80;;;17.00;94.20;;;;;;5133386;27;20203;-63
2022/05/06 07:36:33;;;;;;;11.00;6.77;;;17.10;94.60;;;;;;5132672;27;20252;-63
2022/05/06 07:39:00;;;;;;;10.07;6.43;;;17.20;92.20;;;;;;5132908;27;20285;-62
2022/05/06 07:41:27;;;;;;;9.50;6.03;;;17.30;90.20;;;;;;5132406;27;20267;-64
2022/05/06 07:43:53;;;;;;;9.87;5.60;;;17.40;90.60;;;;;;5132779;27;20210;-63
2022/05/06 07:46:20;;;;;;;11.73;6.57;;;17.50;85.50;;;;;;5132661;27;20202;-62
2022/05/06 07:48:47;;;;;;;10.07;7.00;;;17.50;87.10;;;;;;5133104;27;20211;-66
2022/05/06 07:51:15;;;;;;;11.80;7.70;;;17.70;84.10;;;;;;5132386;27;20227;-65
2022/05/06 07:53:42;;;;;;;12.13;7.60;;;17.70;85.40;;;;;;5132883;27;20199;-64
2022/05/06 07:56:08;;;;;;;12.50;7.60;;;17.60;87.50;;;;;;5132835;27;20202;-63
2022/05/06 07:58:37;;;;;;;12.47;7.80;;;17.40;84.80;;;;;;5133718;27;20232;-65
2022/05/06 08:01:04;;;;;;;12.33;7.50;;;17.60;88.20;;;;;;5132964;27;20226;-65
2022/05/06 08:06:16;;;;;;;11.57;7.50;;;17.80;94.80;;;;;;5131996;27;20569;-64
2022/05/06 08:08:43;;;;;;;11.00;7.47;;;18.00;93.60;;;;;;5132827;27;20248;-62
2022/05/06 08:11:09;;;;;;;11.50;7.37;;;17.90;90.70;;;;;;5131547;27;20307;-63
2022/05/06 08:13:36;;;;;;;10.60;7.23;;;17.70;84.80;;;;;;5132510;27;20201;-66
2022/05/06 08:16:03;;;;;;;12.20;6.53;;;17.80;82.90;;;;;;5132172;27;20199;-65
2022/05/06 08:18:30;;;;;;;12.00;8.00;;;17.90;79.30;;;;;;5132117;27;20659;-66
2022/05/06 08:20:57;;;;;;;10.80;7.30;;;18.00;82.50;;;;;;5132079;27;20237;-66
2022/05/06 08:23:25;;;;;;;12.53;7.60;;;18.20;86.90;;;;;;5131715;27;20210;-65
2022/05/06 08:25:52;;;;;;;13.53;7.93;;;18.50;88.10;;;;;;5132051;27;20290;-64
2022/05/06 08:28:19;;;;;;;11.10;7.30;;;18.40;87.10;;;;;;5132485;27;20206;-64
2022/05/06 08:30:47;;;;;;;11.87;7.40;;;18.60;86.90;;;;;;5131597;27;20227;-63
2022/05/06 08:33:14;;;;;;;12.40;6.73;;;18.50;88.50;;;;;;5131866;27;20600;-64
2022/05/06 08:35:41;;;;;;;10.90;6.40;;;18.60;84.70;;;;;;5131793;27;20231;-63
2022/05/06 08:38:08;;;;;;;11.40;6.10;;;18.70;84.80;;;;;;5131697;27;20673;-63
2022/05/06 08:40:36;;;;;;;8.70;5.67;;;18.70;86.20;;;;;;5131932;27;20245;-63
2022/05/06 08:43:04;;;;;;;10.57;5.80;;;18.80;80.70;;;;;;5132171;27;20199;-63
2022/05/06 08:51:02;;;;;;;13.97;8.13;;;19.20;81.90;;;;;;5131978;28;20221;-66
2022/05/06 08:53:31;;;;;;;17.43;8.87;;;19.30;88.70;;;;;;5131492;27;20797;-65
2022/05/06 08:56:02;;;;;;;14.40;9.10;;;18.60;79.50;;;;;;5131894;27;20240;-65
2022/05/06 08:58:33;;;;;;;12.03;8.10;;;18.40;73.10;;;;;;5131656;27;20210;-65
2022/05/06 09:01:02;;;;;;;15.73;8.90;;;18.50;79.00;;;;;;5131507;27;20630;-64
2022/05/06 09:03:29;;;;;;;11.10;8.00;;;18.80;84.20;;;;;;5132024;27;20310;-66
2022/05/06 09:05:58;;;;;;;18.27;8.63;;;19.00;89.80;;;;;;5131484;27;20206;-65
2022/05/06 09:08:36;;;;;;;14.83;9.37;;;19.10;82.50;;;;;;5132102;27;20289;-64
2022/05/06 09:11:07;;;;;;;15.20;10.97;;;19.10;84.40;;;;;;5131379;27;20262;-64
2022/05/06 09:13:35;;;;;;;15.70;10.80;;;19.20;91.60;;;;;;5131638;27;20669;-63
2022/05/06 09:16:40;;;;;;;15.20;10.00;;;19.10;87.00;;;;;;5135551;27;20205;-64
2022/05/06 09:19:19;;;;;;;15.90;10.40;;;19.30;81.60;;;;;;5135729;27;20230;-64
2022/05/06 09:22:04;;;;;;;15.93;10.43;;;19.20;89.20;;;;;;5135502;27;20768;-64
2022/05/06 09:24:31;;;;;;;13.43;9.43;;;19.40;85.30;;;;;;5135771;27;20203;-64
2022/05/06 09:27:04;;;;;;;16.00;9.73;;;19.40;92.40;;;;;;5135292;27;20252;-65
2022/05/06 09:29:33;;;;;;;21.13;10.13;;;19.50;93.50;;;;;;5135005;27;20203;-64
2022/05/06 09:32:20;;;;;;;16.27;9.80;;;19.80;92.20;;;;;;5135728;27;20586;-63
2022/05/06 09:34:49;;;;;;;14.37;10.03;;;20.00;93.60;;;;;;5135301;27;20267;-64
2022/05/06 09:37:36;;;;;;;21.53;11.50;;;20.10;91.80;;;;;;5135251;27;20203;-64
2022/05/06 09:40:13;;;;;;;17.20;10.83;;;20.10;89.50;;;;;;5134755;27;20843;-64
2022/05/06 09:42:43;;;;;;;16.77;11.30;;;20.10;88.90;;;;;;5135370;27;20622;-64
2022/05/06 09:45:11;;;;;;;15.83;10.60;;;20.10;84.80;;;;;;5135926;27;20214;-64
2022/05/06 09:47:38;;;;;;;14.77;10.10;;;20.10;87.80;;;;;;5134857;27;20202;-64
2022/05/06 09:50:07;;;;;;;18.20;12.07;;;20.10;88.00;;;;;;5135067;27;20226;-63
2022/05/06 09:52:34;;;;;;;17.17;12.03;;;20.10;86.00;;;;;;5134973;27;20222;-63
2022/05/06 09:55:02;;;;;;;18.70;12.27;;;19.80;87.90;;;;;;5135097;27;20230;-64
2022/05/06 09:57:29;;;;;;;17.90;12.63;;;19.80;81.60;;;;;;5134229;27;20256;-66
2022/05/06 09:59:57;;;;;;;16.43;11.73;;;19.80;82.90;;;;;;5134940;27;20230;-66
2022/05/06 10:02:23;;;;;;;16.40;10.17;;;19.90;90.90;;;;;;5135315;27;20205;-66
2022/05/06 10:04:50;;;;;;;14.93;10.10;;;20.10;92.60;;;;;;5134808;27;20206;-65
2022/05/06 10:07:25;;;;;;;17.80;10.80;;;20.40;91.70;;;;;;5134728;27;20737;-65
2022/05/06 10:10:01;;;;;;;15.73;10.50;;;20.70;94.80;;;;;;5133938;27;20305;-67
2022/05/06 10:12:31;;;;;;;14.67;9.70;;;20.90;93.40;;;;;;5134875;27;20596;-67
2022/05/06 10:15:08;;;;;;;15.83;10.30;;;21.00;91.20;;;;;;5134661;27;20631;-66
2022/05/06 10:17:52;;;;;;;17.07;10.00;;;21.00;94.30;;;;;;5134654;27;20672;-67
2022/05/06 10:20:58;;;;;;;16.37;9.67;;;21.20;94.60;;;;;;5134154;27;20315;-64
2022/05/06 10:23:47;;;;;;;13.73;9.10;;;21.30;93.10;;;;;;5134748;27;20610;-64
2022/05/06 10:26:39;;;;;;;14.77;11.47;;;20.90;87.30;;;;;;5133260;27;20211;-64
2022/05/06 10:35:11;;;;;;;22.90;13.00;;;20.30;81.00;;;;;;5133901;27;20301;-63
2022/05/06 10:37:39;;;;;;;20.60;12.40;;;20.40;88.60;;;;;;5134057;27;20690;-64
2022/05/06 10:40:30;;;;;;;18.23;12.77;;;20.40;86.50;;;;;;5133672;27;20307;-65
2022/05/06 10:42:59;;;;;;;18.57;12.40;;;20.40;92.30;;;;;;5134255;27;20203;-65
2022/05/06 10:45:27;;;;;;;16.53;12.73;;;20.20;85.10;;;;;;5133346;27;20233;-64
2022/05/06 10:47:54;;;;;;;16.53;10.83;;;19.90;84.00;;;;;;5133694;27;20729;-65
2022/05/06 10:50:24;;;;;;;13.63;10.17;;;19.90;82.60;;;;;;5133523;27;20279;-63
2022/05/06 10:52:51;;;;;;;15.27;9.57;;;20.10;80.50;;;;;;5133983;27;20225;-63
2022/05/06 10:55:23;;;;;;;14.40;10.40;;;19.70;75.80;;;;;;5133958;27;20673;-64
2022/05/06 10:57:52;;;;;;;19.67;13.37;;;20.20;82.20;;;;;;5133202;27;20256;-64
2022/05/06 11:00:20;;;;;;;20.27;12.47;;;20.70;88.70;;;;;;5133682;27;20713;-62
2022/05/06 11:02:47;;;;;;;19.03;12.27;;;21.00;94.80;;;;;;5133570;27;20565;-63
2022/05/06 11:05:15;;;;;;;18.40;12.33;;;21.10;90.50;;;;;;5133782;27;20203;-65
2022/05/06 11:07:45;;;;;;;15.10;11.03;;;21.00;91.90;;;;;;5133409;27;20214;-64
2022/05/06 11:10:13;;;;;;;15.33;10.97;;;21.10;93.50;;;;;;5133183;27;20222;-65
2022/05/06 11:12:41;;;;;;;21.70;12.30;;;20.80;88.50;;;;;;5133272;27;20226;-64
2022/05/06 11:15:10;;;;;;;17.60;12.10;;;20.90;92.20;;;;;;5133354;27;20294;-64
2022/05/06 11:17:37;;;;;;;16.90;11.17;;;20.60;88.30;;;;;;5133579;27;20567;-65
2022/05/06 11:20:14;;;;;;;18.47;11.43;;;20.40;90.80;;;;;;5132830;27;20351;-64
2022/05/06 11:22:50;;;;;;;16.93;10.77;;;20.40;82.00;;;;;;5133753;27;20199;-65
2022/05/06 11:25:17;;;;;;;18.03;12.23;;;20.50;84.10;;;;;;5133042;27;20210;-67
2022/05/06 11:27:44;;;;;;;20.70;13.73;;;20.60;85.50;;;;;;5132962;27;20230;-63
2022/05/06 11:30:17;;;;;;;17.80;12.87;;;20.30;81.30;;;;;;5133161;27;20247;-65
2022/05/06 11:32:48;;;;;;;23.17;12.30;;;20.20;85.40;;;;;;5132917;27;20223;-64
2022/05/06 11:35:19;;;;;;;17.93;12.73;;;20.00;83.40;;;;;;5132829;27;20256;-65
2022/05/06 11:37:47;;;;;;;18.20;12.70;;;20.10;87.80;;;;;;5132756;27;20210;-65
2022/05/06 11:40:34;;;;;;;16.13;11.83;;;20.20;86.30;;;;;;5132971;27;20226;-63
2022/05/06 11:43:03;;;;;;;19.40;11.80;;;20.30;85.80;;;;;;5133093;27;20294;-64
2022/05/06 11:48:15;;;;;;;17.33;12.77;;;20.70;93.10;;;;;;5132725;27;20398;-64
2022/05/06 11:50:43;;;;;;;17.13;11.33;;;20.90;88.10;;;;;;5132175;27;20223;-65
2022/05/06 11:53:11;;;;;;;19.87;13.43;;;20.90;87.70;;;;;;5132681;27;20262;-65
2022/05/06 11:55:42;;;;;;;19.93;11.97;;;20.90;90.20;;;;;;5132210;27;20256;-64
2022/05/06 11:58:13;;;;;;;17.73;12.40;;;21.00;94.20;;;;;;5132274;27;20628;-64
2022/05/06 12:00:40;;;;;;;16.67;11.90;;;21.30;94.60;;;;;;5132036;27;20709;-65
2022/05/06 12:03:09;;;;;;;19.20;12.60;;;21.40;93.90;;;;;;5132692;27;20199;-64
2022/05/06 12:05:37;;;;;;;16.73;11.67;;;21.70;97.00;;;;;;5132417;27;20299;-64
2022/05/06 12:08:04;;;;;;;18.07;11.47;;;22.00;96.50;;;;;;5131863;27;20677;-64
2022/05/06 12:10:32;;;;;;;16.37;11.40;;;22.20;99.90;;;;;;5132275;27;20280;-66
2022/05/06 12:13:04;;;;;;;13.73;10.63;;;22.30;96.90;;;;;;5131944;27;20231;-66
2022/05/06 12:15:31;;;;;;;15.60;11.37;;;22.20;97.50;;;;;;5132705;27;20215;-64
2022/05/06 12:18:05;;;;;;;16.97;10.70;;;21.60;92.50;;;;;;5132709;27;20203;-65
2022/05/06 12:20:36;;;;;;;20.77;12.00;;;21.50;90.80;;;;;;5132619;27;20219;-69
2022/05/06 12:23:05;;;;;;;19.13;13.07;;;21.00;86.00;;;;;;5144426;27;20205;-67
2022/05/06 12:25:32;;;;;;;20.57;14.57;;;20.70;84.80;;;;;;5137743;27;20551;-69
2022/05/06 12:28:08;;;;;;;22.90;14.07;;;20.30;76.40;;;;;;5138334;27;20203;-67
2022/05/06 12:30:35;;;;;;;23.23;13.70;;;20.10;73.60;;;;;;5132457;27;20232;-64
2022/05/06 12:33:07;;;;;;;20.53;15.27;;;20.10;79.10;;;;;;5132208;27;20334;-64
2022/05/06 12:35:54;;;;;;;25.87;16.63;;;20.20;88.00;;;;;;5131952;27;20209;-66
2022/05/06 12:38:21;;;;;;;20.43;14.70;;;20.50;87.00;;;;;;5131834;27;20209;-63
2022/05/06 12:40:49;;;;;;;19.70;14.93;;;20.80;91.40;;;;;;5131688;27;20279;-63
2022/05/06 12:43:17;;;;;;;21.63;14.50;;;21.30;95.20;;;;;;5131876;27;20276;-65
2022/05/06 12:45:52;;;;;;;22.57;14.07;;;21.60;95.60;;;;;;5131864;27;20255;-65
2022/05/06 12:51:03;;;;;;;20.20;13.13;;;22.00;99.80;;;;;;5135804;27;20316;-63
2022/05/06 12:53:30;;;;;;;16.77;13.17;;;21.90;96.10;;;;;;5136190;27;20223;-65
2022/05/06 12:55:57;;;;;;;24.70;14.00;;;22.30;97.40;;;;;;5135049;27;20206;-64
2022/05/06 12:58:27;;;;;;;21.93;15.17;;;22.60;98.40;;;;;;5136178;27;20205;-65
2022/05/06 13:00:55;;;;;;;21.67;13.73;;;22.70;97.70;;;;;;5135062;27;20295;-62
2022/05/06 13:03:21;;;;;;;16.33;12.07;;;22.50;95.10;;;;;;5135948;27;20294;-62
2022/05/06 13:05:48;;;;;;;15.70;11.53;;;22.30;98.60;;;;;;5135758;27;20210;-63
2022/05/06 13:08:15;;;;;;;17.40;10.97;;;22.10;92.90;;;;;;5135474;27;20260;-64
2022/05/06 13:10:41;;;;;;;16.13;10.73;;;22.20;93.10;;;;;;5135573;27;20611;-67
2022/05/06 13:13:08;;;;;;;18.77;12.30;;;22.20;96.90;;;;;;5135319;27;20218;-63
2022/05/06 13:15:36;;;;;;;16.10;12.93;;;22.50;98.10;;;;;;5136040;27;20616;-64
2022/05/06 13:18:04;;;;;;;19.87;11.87;;;22.80;99.90;;;;;;5135108;27;20206;-65
2022/05/06 13:20:31;;;;;;;15.90;11.33;;;23.00;96.90;;;;;;5135213;27;20844;-65
2022/05/06 13:22:58;;;;;;;15.97;11.47;;;22.90;95.90;;;;;;5135808;27;20210;-65
2022/05/06 13:25:24;;;;;;;14.70;10.73;;;23.10;98.30;;;;;;5135228;27;20206;-64
2022/05/06 13:27:51;;;;;;;15.43;10.60;;;23.20;99.40;;;;;;5135090;27;20203;-67